createdAt,value
2022-11-20T00:01:34.425Z,5.78
2022-11-20T00:04:03.020Z,5.12
2022-11-20T00:06:32.576Z,4.18
2022-11-20T00:09:02.799Z,4.57
2022-11-20T00:11:32.973Z,4.72
2022-11-20T00:14:03.023Z,4.25
2022-11-20T00:16:34.960Z,5.10
2022-11-20T00:19:02.991Z,4.60
2022-11-20T00:21:33.998Z,4.53
2022-11-20T00:24:01.761Z,4.78
2022-11-20T00:26:33.648Z,5.37
2022-11-20T00:29:02.985Z,4.93
2022-11-20T00:31:31.935Z,4.70
2022-11-20T00:33:59.821Z,5.15
2022-11-20T00:36:29.813Z,4.47
2022-11-20T00:38:59.450Z,5.62
2022-11-20T00:41:29.003Z,4.97
2022-11-20T00:44:00.023Z,4.57
2022-11-20T00:46:29.015Z,4.85
2022-11-20T00:48:57.568Z,4.70
2022-11-20T00:51:26.947Z,4.72
2022-11-20T00:53:59.418Z,5.72
2022-11-20T00:56:27.900Z,4.80
2022-11-20T00:58:55.965Z,4.95
2022-11-20T01:01:27.304Z,4.72
2022-11-20T01:03:59.291Z,5.40
2022-11-20T01:06:30.033Z,3.95
2022-11-20T01:09:01.323Z,5.43
2022-11-20T01:11:31.723Z,3.78
2022-11-20T01:14:01.949Z,5.12
2022-11-20T01:16:36.466Z,4.28
2022-11-20T01:19:08.561Z,4.85
2022-11-20T01:21:40.144Z,4.47
2022-11-20T01:24:19.883Z,4.70
2022-11-20T01:26:50.173Z,5.12
2022-11-20T01:29:24.605Z,4.60
2022-11-20T01:31:53.906Z,4.82
2022-11-20T01:34:23.774Z,4.97
2022-11-20T01:36:52.997Z,3.62
2022-11-20T01:39:23.680Z,4.40
2022-11-20T01:42:12.626Z,4.43
2022-11-20T01:45:01.229Z,5.05
2022-11-20T01:47:47.760Z,4.60
2022-11-20T01:50:27.751Z,5.15
2022-11-20T01:53:06.452Z,7.55
2022-11-20T01:55:41.894Z,6.40
2022-11-20T01:58:10.310Z,5.45
2022-11-20T02:00:38.018Z,5.15
2022-11-20T02:03:10.787Z,5.62
2022-11-20T02:05:50.566Z,5.03
2022-11-20T02:08:19.559Z,5.37
2022-11-20T02:10:47.569Z,4.95
2022-11-20T02:13:34.529Z,6.20
2022-11-20T02:16:04.225Z,5.20
2022-11-20T02:18:34.999Z,5.72
2022-11-20T02:21:31.106Z,4.97
2022-11-20T02:24:01.919Z,6.32
2022-11-20T02:26:32.812Z,5.05
2022-11-20T02:29:04.533Z,5.93
2022-11-20T02:31:41.999Z,5.93
2022-11-20T02:34:09.754Z,5.18
2022-11-20T02:36:40.956Z,6.22
2022-11-20T02:39:11.104Z,5.25
2022-11-20T02:41:39.627Z,5.72
2022-11-20T02:44:07.590Z,4.70
2022-11-20T02:46:35.637Z,5.43
2022-11-20T02:49:05.065Z,4.40
2022-11-20T02:51:33.766Z,5.93
2022-11-20T02:54:01.640Z,5.60
2022-11-20T02:56:32.993Z,5.20
2022-11-20T02:59:00.761Z,5.35
2022-11-20T03:01:32.245Z,4.82
2022-11-20T03:04:00.488Z,6.45
2022-11-20T03:06:28.528Z,5.68
2022-11-20T03:08:56.419Z,6.25
2022-11-20T03:11:24.548Z,6.20
2022-11-20T03:13:52.529Z,5.80
2022-11-20T03:16:23.180Z,5.18
2022-11-20T03:18:53.939Z,5.45
2022-11-20T03:21:21.692Z,5.72
2022-11-20T03:23:49.602Z,6.72
2022-11-20T03:26:23.146Z,6.57
2022-11-20T03:29:02.306Z,6.53
2022-11-20T03:31:33.600Z,4.87
2022-11-20T03:34:05.221Z,6.70
2022-11-20T03:36:33.940Z,6.05
2022-11-20T03:39:05.079Z,5.87
2022-11-20T03:41:39.013Z,5.47
2022-11-20T03:44:08.845Z,4.90
2022-11-20T03:46:37.142Z,5.87
2022-11-20T03:49:05.247Z,7.03
2022-11-20T03:51:35.334Z,5.80
2022-11-20T03:54:07.255Z,6.43
2022-11-20T03:56:38.997Z,4.35
2022-11-20T03:59:12.302Z,6.80
2022-11-20T04:04:10.391Z,6.53
2022-11-20T04:06:39.460Z,4.80
2022-11-20T04:09:07.684Z,4.87
2022-11-20T04:11:38.371Z,4.93
2022-11-20T04:14:07.688Z,5.93
2022-11-20T04:16:37.382Z,6.18
2022-11-20T04:19:07.995Z,6.20
2022-11-20T04:21:36.477Z,5.93
2022-11-20T04:24:04.679Z,6.00
2022-11-20T04:26:33.122Z,7.07
2022-11-20T04:29:03.152Z,4.40
2022-11-20T04:31:34.910Z,6.05
2022-11-20T04:34:05.143Z,5.70
2022-11-20T04:36:33.784Z,5.10
2022-11-20T04:39:05.937Z,6.10
2022-11-20T04:41:36.990Z,6.72
2022-11-20T04:44:07.079Z,6.53
2022-11-20T04:46:43.034Z,5.45
2022-11-20T04:49:12.940Z,5.65
2022-11-20T04:51:41.195Z,5.07
2022-11-20T04:54:10.783Z,6.93
2022-11-20T04:56:41.497Z,6.40
2022-11-20T04:59:09.718Z,6.20
2022-11-20T05:01:37.772Z,6.35
2022-11-20T05:04:09.281Z,5.62
2022-11-20T05:06:37.390Z,5.97
2022-11-20T05:09:05.274Z,5.47
2022-11-20T05:11:33.861Z,7.07
2022-11-20T05:14:02.051Z,6.47
2022-11-20T05:16:35.863Z,5.53
2022-11-20T05:19:04.036Z,5.90
2022-11-20T05:21:33.574Z,5.70
2022-11-20T05:24:01.367Z,4.65
2022-11-20T05:26:29.532Z,6.15
2022-11-20T05:28:57.364Z,6.40
2022-11-20T05:31:27.981Z,6.78
2022-11-20T05:33:58.524Z,6.90
2022-11-20T05:36:26.384Z,5.47
2022-11-20T05:38:59.811Z,5.78
2022-11-20T05:41:30.191Z,5.37
2022-11-20T05:44:00.190Z,6.75
2022-11-20T05:46:29.440Z,6.25
2022-11-20T05:49:00.817Z,7.47
2022-11-20T05:51:29.108Z,5.00
2022-11-20T05:54:03.239Z,5.78
2022-11-20T05:56:34.592Z,6.90
2022-11-20T05:59:02.392Z,7.47
2022-11-20T06:01:30.138Z,4.85
2022-11-20T06:04:01.401Z,5.93
2022-11-20T06:06:29.552Z,6.20
2022-11-20T06:08:57.581Z,6.85
2022-11-20T06:11:26.351Z,5.93
2022-11-20T06:13:57.127Z,7.72
2022-11-20T06:16:25.478Z,6.62
2022-11-20T06:18:53.318Z,6.45
2022-11-20T06:21:23.788Z,6.87
2022-11-20T06:23:53.702Z,8.23
2022-11-20T06:26:24.356Z,7.00
2022-11-20T06:28:53.528Z,6.40
2022-11-20T06:31:24.533Z,7.03
2022-11-20T06:33:56.380Z,7.43
2022-11-20T06:36:24.549Z,7.00
2022-11-20T06:38:52.680Z,6.78
2022-11-20T06:41:22.613Z,7.50
2022-11-20T06:43:51.326Z,6.85
2022-11-20T06:46:20.853Z,5.40
2022-11-20T06:48:49.763Z,6.43
2022-11-20T06:51:20.813Z,7.35
2022-11-20T06:53:49.853Z,6.75
2022-11-20T06:56:17.725Z,6.35
2022-11-20T06:58:45.696Z,6.22
2022-11-20T07:01:15.913Z,7.57
2022-11-20T07:03:44.389Z,7.40
2022-11-20T07:06:12.394Z,7.22
2022-11-20T07:08:40.795Z,7.32
2022-11-20T07:11:09.694Z,7.43
2022-11-20T07:13:37.491Z,6.97
2022-11-20T07:16:08.742Z,6.93
2022-11-20T07:18:39.611Z,8.02
2022-11-20T07:21:10.202Z,6.43
2022-11-20T07:23:40.638Z,8.00
2022-11-20T07:26:11.060Z,7.15
2022-11-20T07:28:39.069Z,6.68
2022-11-20T07:31:13.441Z,6.80
2022-11-20T07:33:46.056Z,6.80
2022-11-20T07:36:13.944Z,6.47
2022-11-20T07:38:41.788Z,5.55
2022-11-20T07:41:09.911Z,5.80
2022-11-20T07:43:41.282Z,6.87
2022-11-20T07:46:10.240Z,7.03
2022-11-20T07:48:38.045Z,5.97
2022-11-20T07:51:06.126Z,6.72
2022-11-20T07:53:34.363Z,6.45
2022-11-20T07:56:03.709Z,5.72
2022-11-20T07:58:31.710Z,6.03
2022-11-20T08:01:09.658Z,7.03
2022-11-20T08:03:41.125Z,6.65
2022-11-20T08:06:12.123Z,5.20
2022-11-20T08:08:43.004Z,6.78
2022-11-20T08:11:29.989Z,6.40
2022-11-20T08:14:13.291Z,5.65
2022-11-20T08:16:46.793Z,6.60
2022-11-20T08:19:16.657Z,5.90
2022-11-20T08:21:47.680Z,6.35
2022-11-20T08:24:15.763Z,5.75
2022-11-20T08:26:43.428Z,6.15
2022-11-20T08:29:11.050Z,6.87
2022-11-20T08:31:39.288Z,5.95
2022-11-20T08:34:09.469Z,6.40
2022-11-20T08:36:40.603Z,6.50
2022-11-20T08:39:08.810Z,6.03
2022-11-20T08:41:39.896Z,6.00
2022-11-20T08:44:09.385Z,5.87
2022-11-20T08:46:40.556Z,5.90
2022-11-20T08:49:10.828Z,5.80
2022-11-20T08:51:42.609Z,6.68
2022-11-20T08:54:10.889Z,7.50
2022-11-20T08:56:41.850Z,6.32
2022-11-20T08:59:50.906Z,6.90
2022-11-20T09:02:00.848Z,6.50
2022-11-20T09:04:30.517Z,6.68
2022-11-20T09:06:58.264Z,7.07
2022-11-20T09:09:26.222Z,6.80
2022-11-20T09:11:54.475Z,6.43
2022-11-20T09:14:22.699Z,6.65
2022-11-20T09:16:50.419Z,7.80
2022-11-20T09:19:40.906Z,5.82
2022-11-20T09:22:06.346Z,6.10
2022-11-20T09:24:34.614Z,7.20
2022-11-20T09:27:08.729Z,7.07
2022-11-20T09:29:36.878Z,7.75
2022-11-20T09:32:04.947Z,6.82
2022-11-20T09:34:32.860Z,7.62
2022-11-20T09:37:04.526Z,6.22
2022-11-20T09:39:35.086Z,7.37
2022-11-20T09:42:24.618Z,6.97
2022-11-20T09:45:30.685Z,7.15
2022-11-20T09:48:22.499Z,7.75
2022-11-20T09:51:15.364Z,8.65
2022-11-20T09:54:04.846Z,8.18
2022-11-20T09:56:38.485Z,7.12
2022-11-20T09:59:09.307Z,8.68
2022-11-20T10:01:39.829Z,8.98
2022-11-20T10:04:17.412Z,8.70
2022-11-20T10:07:30.935Z,7.72
2022-11-20T10:09:57.738Z,8.60
2022-11-20T10:12:25.530Z,8.88
2022-11-20T10:15:22.850Z,8.70
2022-11-20T10:18:09.186Z,8.43
2022-11-20T10:20:56.054Z,7.90
2022-11-20T10:23:37.423Z,9.60
2022-11-20T10:26:39.539Z,9.00
2022-11-20T10:29:28.840Z,10.32
2022-11-20T10:32:03.684Z,9.85
2022-11-20T10:34:56.369Z,9.18
2022-11-20T10:37:27.057Z,10.50
2022-11-20T10:40:19.098Z,9.32
2022-11-20T10:42:56.259Z,11.00
2022-11-20T10:45:28.194Z,10.30
2022-11-20T10:48:09.434Z,9.93
2022-11-20T10:51:09.275Z,10.38
2022-11-20T10:53:53.891Z,11.02
2022-11-20T10:56:50.099Z,11.02
2022-11-20T10:59:47.782Z,10.90
2022-11-20T11:02:32.687Z,11.45
2022-11-20T11:05:27.179Z,11.80
2022-11-20T11:07:57.256Z,11.85
2022-11-20T11:10:54.021Z,10.45
2022-11-20T11:13:30.844Z,9.93
2022-11-20T11:15:59.774Z,10.05
2022-11-20T11:18:31.379Z,10.88
2022-11-20T11:21:01.963Z,10.63
2022-11-20T11:23:42.911Z,11.30
2022-11-20T11:26:24.846Z,11.40
2022-11-20T11:29:04.635Z,10.27
2022-11-20T11:31:36.636Z,12.80
2022-11-20T11:34:15.493Z,12.02
2022-11-20T11:36:50.831Z,12.75
2022-11-20T11:39:21.719Z,11.40
2022-11-20T11:41:50.593Z,13.05
2022-11-20T11:44:47.687Z,11.73
2022-11-20T11:47:37.208Z,13.75
2022-11-20T11:50:14.094Z,12.27
2022-11-20T11:52:54.110Z,12.77
2022-11-20T11:55:53.592Z,14.00
2022-11-20T11:58:48.148Z,11.23
2022-11-20T12:01:30.860Z,13.20
2022-11-20T12:04:20.400Z,14.02
2022-11-20T12:07:06.100Z,15.40
2022-11-20T12:09:53.976Z,19.80
2022-11-20T12:12:31.922Z,17.00
2022-11-20T12:15:00.212Z,13.98
2022-11-20T12:17:28.005Z,14.98
2022-11-20T12:19:55.827Z,13.70
2022-11-20T12:22:31.045Z,15.13
2022-11-20T12:25:12.287Z,13.68
2022-11-20T12:27:47.551Z,13.48
2022-11-20T12:30:20.899Z,13.30
2022-11-20T12:33:22.665Z,13.73
2022-11-20T12:35:59.723Z,14.27
2022-11-20T12:39:07.404Z,14.15
2022-11-20T12:42:44.997Z,12.15
2022-11-20T12:45:24.720Z,11.82
2022-11-20T12:48:15.088Z,12.55
2022-11-20T12:51:16.044Z,12.15
2022-11-20T12:54:06.221Z,11.73
2022-11-20T12:57:03.483Z,13.38
2022-11-20T13:00:07.343Z,10.48
2022-11-20T13:03:03.118Z,14.00
2022-11-20T13:05:42.488Z,10.93
2022-11-20T13:08:23.223Z,11.82
2022-11-20T13:10:59.911Z,11.98
2022-11-20T13:13:32.852Z,10.63
2022-11-20T13:16:15.863Z,10.57
2022-11-20T13:18:46.454Z,9.40
2022-11-20T13:21:20.377Z,10.05
2022-11-20T13:23:49.058Z,9.85
2022-11-20T13:26:24.410Z,11.43
2022-11-20T13:29:13.354Z,10.75
2022-11-20T13:31:50.542Z,11.48
2022-11-20T13:34:27.527Z,11.77
2022-11-20T13:36:57.706Z,10.57
2022-11-20T13:39:39.595Z,12.75
2022-11-20T13:42:13.311Z,10.77
2022-11-20T13:44:49.117Z,10.38
2022-11-20T13:47:28.622Z,10.40
2022-11-20T13:50:00.587Z,10.05
2022-11-20T13:52:57.420Z,10.10
2022-11-20T13:55:49.969Z,9.63
2022-11-20T13:58:35.574Z,10.48
2022-11-20T14:01:21.375Z,13.68
2022-11-20T14:04:06.681Z,14.52
2022-11-20T14:06:47.309Z,11.73
2022-11-20T14:09:36.455Z,11.88
2022-11-20T14:12:15.175Z,14.10
2022-11-20T14:14:54.295Z,14.02
2022-11-20T14:17:26.678Z,15.45
2022-11-20T14:19:56.258Z,16.33
2022-11-20T14:22:28.001Z,14.85
2022-11-20T14:25:15.514Z,16.25
2022-11-20T14:27:46.124Z,14.85
2022-11-20T14:30:17.369Z,13.65
2022-11-20T14:32:47.365Z,12.55
2022-11-20T14:35:47.209Z,11.77
2022-11-20T14:38:18.612Z,10.98
2022-11-20T14:40:47.414Z,11.77
2022-11-20T14:43:27.198Z,12.20
2022-11-20T14:46:11.355Z,13.27
2022-11-20T14:48:55.187Z,12.98
2022-11-20T14:51:43.622Z,13.62
2022-11-20T14:54:18.962Z,13.65
2022-11-20T14:56:57.437Z,12.93
2022-11-20T14:59:27.239Z,13.70
2022-11-20T15:01:59.615Z,13.85
2022-11-20T15:04:31.334Z,13.20
2022-11-20T15:07:01.448Z,17.02
2022-11-20T15:09:29.677Z,14.90
2022-11-20T15:12:01.739Z,14.68
2022-11-20T15:14:33.931Z,13.77
2022-11-20T15:17:02.155Z,14.10
2022-11-20T15:19:30.597Z,14.18
2022-11-20T15:21:58.402Z,15.63
2022-11-20T15:24:26.323Z,14.13
2022-11-20T15:26:57.639Z,12.77
2022-11-20T15:29:25.840Z,15.85
2022-11-20T15:31:55.512Z,13.07
2022-11-20T15:34:23.765Z,14.70
2022-11-20T15:36:51.936Z,15.10
2022-11-20T15:39:20.178Z,15.35
2022-11-20T15:41:48.417Z,37.50
2022-11-20T15:44:16.291Z,26.92
2022-11-20T15:46:46.352Z,19.58
2022-11-20T15:49:16.939Z,15.43
2022-11-20T15:51:49.125Z,15.02
2022-11-20T15:54:23.310Z,16.15
2022-11-20T15:56:55.360Z,13.65
2022-11-20T15:59:23.298Z,15.65
2022-11-20T16:01:51.702Z,15.52
2022-11-20T16:04:20.435Z,16.08
2022-11-20T16:06:48.480Z,15.27
2022-11-20T16:09:16.427Z,15.98
2022-11-20T16:11:47.702Z,13.35
2022-11-20T16:14:33.963Z,13.90
2022-11-20T16:17:02.935Z,13.82
2022-11-20T16:19:30.841Z,14.77
2022-11-20T16:22:02.858Z,14.10
2022-11-20T16:24:31.700Z,14.02
2022-11-20T16:26:59.566Z,13.02
2022-11-20T16:29:27.454Z,15.45
2022-11-20T16:31:55.695Z,13.57
2022-11-20T16:34:23.873Z,14.87
2022-11-20T16:36:54.929Z,15.95
2022-11-20T16:39:24.125Z,14.00
2022-11-20T16:41:51.993Z,14.55
2022-11-20T16:44:19.811Z,16.05
2022-11-20T16:46:48.225Z,14.32
2022-11-20T16:49:16.254Z,13.60
2022-11-20T16:51:44.263Z,12.18
2022-11-20T16:54:16.450Z,14.00
2022-11-20T16:56:48.579Z,14.95
2022-11-20T16:59:16.864Z,20.62
2022-11-20T17:01:44.801Z,18.98
2022-11-20T17:04:12.750Z,19.08
2022-11-20T17:06:44.562Z,16.00
2022-11-20T17:09:15.605Z,17.55
2022-11-20T17:11:49.074Z,15.27
2022-11-20T17:14:17.006Z,14.30
2022-11-20T17:16:48.112Z,14.50
2022-11-20T17:19:16.192Z,16.85
2022-11-20T17:21:47.231Z,16.95
2022-11-20T17:24:16.553Z,15.73
2022-11-20T17:26:45.665Z,14.48
2022-11-20T17:29:18.415Z,16.02
2022-11-20T17:31:50.167Z,16.52
2022-11-20T17:34:18.241Z,15.43
2022-11-20T17:36:46.842Z,14.73
2022-11-20T17:39:15.947Z,16.50
2022-11-20T17:41:43.957Z,16.37
2022-11-20T17:44:13.454Z,16.10
2022-11-20T17:46:41.593Z,15.40
2022-11-20T17:49:09.411Z,14.52
2022-11-20T17:51:37.690Z,15.52
2022-11-20T17:54:07.897Z,16.58
2022-11-20T17:56:55.180Z,14.68
2022-11-20T17:59:23.475Z,15.30
2022-11-20T18:01:51.404Z,15.55
2022-11-20T18:04:19.635Z,15.80
2022-11-20T18:06:47.499Z,15.10
2022-11-20T18:09:15.534Z,15.77
2022-11-20T18:11:44.323Z,17.00
2022-11-20T18:14:34.979Z,15.77
2022-11-20T18:17:08.754Z,15.60
2022-11-20T18:20:07.140Z,16.90
2022-11-20T18:22:37.237Z,16.80
2022-11-20T18:25:05.568Z,15.35
2022-11-20T18:27:33.468Z,14.93
2022-11-20T18:30:01.744Z,15.32
2022-11-20T18:32:31.406Z,15.20
2022-11-20T18:34:59.247Z,15.88
2022-11-20T18:37:28.297Z,17.17
2022-11-20T18:39:57.322Z,14.93
2022-11-20T18:42:43.502Z,14.70
2022-11-20T18:45:11.751Z,15.27
2022-11-20T18:47:40.452Z,15.15
2022-11-20T18:50:09.621Z,14.82
2022-11-20T18:52:44.934Z,15.52
2022-11-20T18:55:13.200Z,13.93
2022-11-20T18:57:41.649Z,15.35
2022-11-20T19:00:13.216Z,13.98
2022-11-20T19:02:43.184Z,17.00
2022-11-20T19:05:13.170Z,14.93
2022-11-20T19:07:41.640Z,14.45
2022-11-20T19:10:09.897Z,14.45
2022-11-20T19:12:38.029Z,14.90
2022-11-20T19:15:07.011Z,15.27
2022-11-20T19:17:34.779Z,15.15
2022-11-20T19:20:02.511Z,13.68
2022-11-20T19:22:31.498Z,13.05
2022-11-20T19:24:59.298Z,13.45
2022-11-20T19:27:27.100Z,15.32
2022-11-20T19:29:59.082Z,15.57
2022-11-20T19:32:27.968Z,14.27
2022-11-20T19:34:56.061Z,13.77
2022-11-20T19:37:25.585Z,14.52
2022-11-20T19:39:53.380Z,14.95
2022-11-20T19:42:21.497Z,14.63
2022-11-20T19:44:49.395Z,21.83
2022-11-20T19:47:17.176Z,16.50
2022-11-20T19:49:45.239Z,16.65
2022-11-20T19:52:13.129Z,16.23
2022-11-20T19:54:41.006Z,14.23
2022-11-20T19:57:09.103Z,17.17
2022-11-20T19:59:36.895Z,13.70
2022-11-20T20:02:04.867Z,14.52
2022-11-20T20:04:33.266Z,14.30
2022-11-20T20:07:04.110Z,13.85
2022-11-20T20:09:32.060Z,14.65
2022-11-20T20:12:00.385Z,15.43
2022-11-20T20:14:28.280Z,11.38
2022-11-20T20:16:56.147Z,13.35
2022-11-20T20:19:24.451Z,13.13
2022-11-20T20:21:52.629Z,12.55
2022-11-20T20:24:20.491Z,12.73
2022-11-20T20:26:48.688Z,12.00
2022-11-20T20:29:23.638Z,12.85
2022-11-20T20:31:54.632Z,10.45
2022-11-20T20:34:29.871Z,11.25
2022-11-20T20:37:01.255Z,11.15
2022-11-20T20:39:29.565Z,12.10
2022-11-20T20:42:00.300Z,11.98
2022-11-20T20:44:46.897Z,11.80
2022-11-20T20:47:14.659Z,12.52
2022-11-20T20:49:43.606Z,11.70
2022-11-20T20:52:11.404Z,11.07
2022-11-20T20:54:41.698Z,11.25
2022-11-20T20:57:09.849Z,12.32
2022-11-20T20:59:37.623Z,11.98
2022-11-20T21:02:09.520Z,12.40
2022-11-20T21:04:37.794Z,11.93
2022-11-20T21:07:05.839Z,11.77
2022-11-20T21:09:33.574Z,12.18
2022-11-20T21:12:05.687Z,11.75
2022-11-20T21:14:33.658Z,11.55
2022-11-20T21:17:02.534Z,9.70
2022-11-20T21:19:30.314Z,10.85
2022-11-20T21:22:00.815Z,11.27
2022-11-20T21:24:36.703Z,11.82
2022-11-20T21:27:07.462Z,11.63
2022-11-20T21:29:35.743Z,12.63
2022-11-20T21:32:03.763Z,11.65
2022-11-20T21:34:32.113Z,11.40
2022-11-20T21:37:00.468Z,10.73
2022-11-20T21:39:30.589Z,12.10
2022-11-20T21:41:58.492Z,14.38
2022-11-20T21:44:31.380Z,14.25
2022-11-20T21:47:00.471Z,14.27
2022-11-20T21:49:28.737Z,12.63
2022-11-20T21:51:59.876Z,11.02
2022-11-20T21:54:28.149Z,10.65
2022-11-20T21:56:55.900Z,10.85
2022-11-20T21:59:24.186Z,11.75
2022-11-20T22:01:52.401Z,9.63
2022-11-20T22:04:21.728Z,9.15
2022-11-20T22:06:52.628Z,9.80
2022-11-20T22:09:20.929Z,11.00
2022-11-20T22:11:48.600Z,10.02
2022-11-20T22:14:22.427Z,13.38
2022-11-20T22:16:53.090Z,18.98
2022-11-20T22:19:22.263Z,15.02
2022-11-20T22:21:53.487Z,12.52
2022-11-20T22:24:22.992Z,13.23
2022-11-20T22:26:51.066Z,9.82
2022-11-20T22:29:23.663Z,7.65
2022-11-20T22:31:54.955Z,8.10
2022-11-20T22:34:26.201Z,9.05
2022-11-20T22:36:54.621Z,10.93
2022-11-20T22:39:23.404Z,9.25
2022-11-20T22:41:51.434Z,9.75
2022-11-20T22:44:19.699Z,9.52
2022-11-20T22:46:50.356Z,9.27
2022-11-20T22:49:18.128Z,9.60
2022-11-20T22:51:46.353Z,8.35
2022-11-20T22:54:14.231Z,10.10
2022-11-20T22:56:42.324Z,7.60
2022-11-20T22:59:10.645Z,7.80
2022-11-20T23:01:38.732Z,9.73
2022-11-20T23:04:11.921Z,10.00
2022-11-20T23:06:40.288Z,8.88
2022-11-20T23:09:13.093Z,8.48
2022-11-20T23:11:41.269Z,8.63
2022-11-20T23:14:15.538Z,10.48
2022-11-20T23:16:44.030Z,8.48
2022-11-20T23:19:16.758Z,8.10
2022-11-20T23:21:45.272Z,9.88
2022-11-20T23:24:13.124Z,9.88
2022-11-20T23:26:41.734Z,10.07
2022-11-20T23:29:10.001Z,10.18
2022-11-20T23:31:37.917Z,9.70
2022-11-20T23:34:06.263Z,10.63
2022-11-20T23:36:34.447Z,10.05
2022-11-20T23:39:02.416Z,11.57
2022-11-20T23:41:30.086Z,10.35
2022-11-20T23:43:58.168Z,12.00
2022-11-20T23:46:25.971Z,9.30
2022-11-20T23:48:56.202Z,12.68
2022-11-20T23:51:24.283Z,12.40
2022-11-20T23:53:52.513Z,11.48
2022-11-20T23:56:23.327Z,13.48
2022-11-20T23:58:51.478Z,11.45
